Time;durP1;ratioP1;P1;durP2;ratioP2;P2;SDS_P1;SDS_P2;PMS_P1;PMS_P2;Temp;Humidity;BMP_temperature;BMP_pressure;BME280_temperature;BME280_humidity;BME280_pressure;Samples;Min_cycle;Max_cycle;Signal;HPM_P1;HPM_P2
2022/10/22 00:00:09;;;;;;;5.20;3.45;;;;;;;14.71;75.79;100830.59;5016314;28;20109;-70
2022/10/22 00:02:35;;;;;;;4.13;3.40;;;;;;;14.71;76.54;100821.38;5031389;28;20030;-70
2022/10/22 00:05:00;;;;;;;7.22;3.92;;;;;;;14.69;76.52;100821.66;5032619;28;20465;-70
2022/10/22 00:07:25;;;;;;;6.05;3.58;;;;;;;14.69;76.83;100821.66;5031263;28;20039;-70
2022/10/22 00:09:51;;;;;;;7.60;3.97;;;;;;;14.68;77.15;100827.53;5029364;28;20481;-70
2022/10/22 00:12:16;;;;;;;7.97;3.80;;;;;;;14.72;77.05;100823.06;5014554;28;20030;-70
2022/10/22 00:14:42;;;;;;;9.18;4.28;;;;;;;14.66;77.58;100819.44;5021990;28;20033;-70
2022/10/22 00:17:08;;;;;;;7.43;3.70;;;;;;;14.69;77.46;100818.84;5022252;28;20057;-70
2022/10/22 00:19:33;;;;;;;6.97;3.88;;;;;;;14.66;77.35;100818.59;5018428;28;20026;-70
2022/10/22 00:21:59;;;;;;;9.27;4.15;;;;;;;14.66;77.85;100824.19;5026994;28;20088;-70
2022/10/22 00:24:25;;;;;;;9.30;3.70;;;;;;;14.65;77.58;100823.34;5016728;28;20025;-70
2022/10/22 00:26:51;;;;;;;8.40;3.65;;;;;;;14.65;77.79;100816.91;5025515;28;20049;-71
2022/10/22 00:29:19;;;;;;;8.52;3.83;;;;;;;14.67;77.44;100820.28;5022732;28;20068;-70
2022/10/22 00:31:48;;;;;;;6.68;3.55;;;;;;;14.68;77.15;100816.34;5011907;28;20438;-70
2022/10/22 00:34:16;;;;;;;6.75;3.58;;;;;;;14.64;76.54;100820.81;5012739;28;20033;-70
2022/10/22 00:36:41;;;;;;;7.53;3.70;;;;;;;14.70;76.60;100825.31;5020192;28;20429;-70
2022/10/22 00:39:06;;;;;;;8.30;3.60;;;;;;;14.69;77.27;100826.41;5027698;28;20061;-70
2022/10/22 00:41:32;;;;;;;7.68;3.42;;;;;;;14.68;77.85;100825.56;5024118;28;20038;-70
2022/10/22 00:44:05;;;;;;;6.50;3.47;;;;;;;14.68;78.17;100830.31;5030775;28;20035;-70
2022/10/22 00:46:30;;;;;;;8.52;3.70;;;;;;;14.66;78.04;100824.19;5032169;28;20029;-70
2022/10/22 00:48:59;;;;;;;9.82;4.00;;;;;;;14.65;78.24;100828.09;5024764;28;20389;-70
2022/10/22 00:51:28;;;;;;;7.15;3.33;;;;;;;14.64;78.65;100826.41;5016728;28;20495;-70
2022/10/22 00:53:59;;;;;;;8.38;3.67;;;;;;;14.65;78.54;100822.50;5029205;28;20032;-70
2022/10/22 00:56:24;;;;;;;10.20;3.83;;;;;;;14.66;78.50;100825.03;5025316;28;20087;-70
2022/10/22 00:58:55;;;;;;;8.82;3.67;;;;;;;14.68;78.59;100822.78;5021778;28;20408;-71
2022/10/22 01:01:24;;;;;;;9.10;3.50;;;;;;;14.65;78.30;100825.28;5014798;28;20038;-70
2022/10/22 01:03:50;;;;;;;9.15;3.90;;;;;;;14.69;78.33;100823.59;5016399;28;20022;-70
2022/10/22 01:06:28;;;;;;;9.85;3.50;;;;;;;14.69;78.05;100823.59;5011398;28;20119;-72
2022/10/22 01:09:15;;;;;;;11.68;3.58;;;;;;;14.74;78.44;100823.63;5017135;28;20022;-70
2022/10/22 01:12:12;;;;;;;10.80;3.95;;;;;;;14.74;78.57;100826.41;5031743;28;20199;-70
2022/10/22 01:15:13;;;;;;;8.52;4.13;;;;;;;14.72;78.63;100831.44;5031215;28;20473;-70
2022/10/22 01:17:39;;;;;;;13.77;4.28;;;;;;;14.68;78.72;100830.31;5029351;28;20054;-69
2022/10/22 01:20:36;;;;;;;7.57;4.25;;;;;;;14.65;78.94;100819.69;5025341;28;20033;-69
2022/10/22 01:23:05;;;;;;;7.72;4.20;;;;;;;14.63;79.09;100819.16;5008018;28;20054;-69
2022/10/22 01:25:35;;;;;;;12.18;4.25;;;;;;;14.60;79.38;100823.34;5018665;28;20036;-69
2022/10/22 01:28:22;;;;;;;13.50;5.15;;;;;;;14.69;78.85;100823.59;5030379;28;20429;-69
2022/10/22 01:30:52;;;;;;;12.45;5.10;;;;;;;14.61;79.20;100816.63;5030450;28;20084;-69
2022/10/22 01:33:20;;;;;;;10.45;4.10;;;;;;;14.61;78.83;100824.19;5029449;28;20459;-69
2022/10/22 01:35:46;;;;;;;9.82;4.63;;;;;;;14.65;78.94;100822.50;5031130;28;20051;-69
2022/10/22 01:38:15;;;;;;;9.52;4.60;;;;;;;14.63;78.95;100821.97;5029235;28;20445;-70
2022/10/22 01:40:41;;;;;;;12.05;4.65;;;;;;;14.58;79.15;100824.72;5027750;28;20025;-70
2022/10/22 01:43:09;;;;;;;6.80;4.22;;;;;;;14.57;79.10;100815.53;5029279;28;20048;-70
2022/10/22 01:45:42;;;;;;;13.95;4.57;;;;;;;14.55;79.06;100812.19;5028215;28;20037;-70
2022/10/22 01:48:20;;;;;;;7.60;4.35;;;;;;;14.51;79.34;100804.66;5027303;28;20071;-70
2022/10/22 01:51:04;;;;;;;9.35;4.43;;;;;;;14.50;79.40;100809.38;5014131;28;20427;-70
2022/10/22 01:53:42;;;;;;;9.55;4.50;;;;;;;14.52;79.27;100806.31;5014056;28;20041;-70
2022/10/22 01:56:45;;;;;;;11.23;4.32;;;;;;;14.53;79.14;100805.19;5030246;28;20041;-70
2022/10/22 01:59:19;;;;;;;;;;;;;;;14.66;78.58;100815.81;5028664;28;20072;-70
2022/10/22 02:02:06;;;;;;;10.70;4.80;;;;;;;14.58;78.82;100811.63;5029721;28;19947;-69
2022/10/22 02:05:11;;;;;;;11.30;4.65;;;;;;;14.53;79.14;100817.19;5027167;28;20034;-70
2022/10/22 02:07:47;;;;;;;7.88;4.30;;;;;;;14.50;79.34;100814.97;5018273;28;20064;-70
2022/10/22 02:10:14;;;;;;;9.13;4.45;;;;;;;14.49;79.28;100818.88;5021023;28;20035;-70
2022/10/22 02:12:42;;;;;;;10.15;4.13;;;;;;;14.48;79.41;100817.19;5020235;28;20030;-70
2022/10/22 02:15:09;;;;;;;10.50;4.70;;;;;;;14.45;79.69;100832.53;5027789;28;20500;-70
2022/10/22 02:17:37;;;;;;;10.95;4.93;;;;;;;14.47;79.40;100832.28;5028729;28;20132;-70
2022/10/22 02:20:08;;;;;;;8.60;4.40;;;;;;;14.43;79.56;100831.16;5028109;28;20124;-70
2022/10/22 02:22:35;;;;;;;12.35;5.05;;;;;;;14.43;79.56;100826.41;5030532;28;20029;-69
2022/10/22 02:25:01;;;;;;;7.75;4.28;;;;;;;14.47;79.41;100815.50;5024467;28;20465;-70
2022/10/22 02:27:34;;;;;;;8.18;4.68;;;;;;;14.40;79.74;100817.75;5028334;28;20104;-70
2022/10/22 02:30:17;;;;;;;11.15;4.45;;;;;;;14.41;79.72;100825.84;5030430;28;20030;-70
2022/10/22 02:32:45;;;;;;;8.35;4.57;;;;;;;14.36;79.73;100825.84;5029359;28;20519;-70
2022/10/22 02:35:13;;;;;;;12.43;5.15;;;;;;;14.36;79.65;100819.41;5026988;28;20477;-70
2022/10/22 02:37:39;;;;;;;12.25;4.95;;;;;;;14.37;79.69;100829.47;5025804;28;20128;-69
2022/10/22 02:40:05;;;;;;;9.57;4.88;;;;;;;14.32;79.14;100824.72;5028681;28;20461;-70
2022/10/22 02:42:33;;;;;;;11.32;4.35;;;;;;;14.35;79.42;100821.38;5030309;28;20041;-70
2022/10/22 02:44:58;;;;;;;9.15;4.70;;;;;;;14.36;79.62;100822.22;5028024;28;20037;-70
2022/10/22 02:47:24;;;;;;;7.78;4.45;;;;;;;14.36;79.41;100825.84;5023969;28;20026;-70
2022/10/22 02:49:49;;;;;;;6.95;4.28;;;;;;;14.36;79.64;100836.19;5011075;28;20030;-70
2022/10/22 02:52:14;;;;;;;11.50;4.75;;;;;;;14.34;79.72;100825.28;5020710;28;20029;-69
2022/10/22 02:54:39;;;;;;;11.07;4.75;;;;;;;14.37;79.76;100835.88;5031038;28;20144;-70
2022/10/22 02:57:05;;;;;;;7.57;4.40;;;;;;;14.35;79.86;100832.53;5033680;28;20412;-70
2022/10/22 02:59:30;;;;;;;11.02;4.88;;;;;;;14.35;80.04;100840.94;5031251;28;20473;-70
2022/10/22 03:01:55;;;;;;;7.57;4.13;;;;;;;14.32;79.91;100837.84;5032836;28;20025;-69
2022/10/22 03:04:20;;;;;;;9.25;4.20;;;;;;;14.34;79.75;100836.44;5033699;28;20488;-70
2022/10/22 03:06:47;;;;;;;9.40;4.43;;;;;;;14.33;80.00;100836.72;5019570;28;20144;-70
2022/10/22 03:09:15;;;;;;;8.82;4.65;;;;;;;14.30;79.54;100843.69;5014674;28;20045;-69
2022/10/22 03:11:40;;;;;;;7.28;4.20;;;;;;;14.28;80.05;100845.09;5018566;28;20114;-70
2022/10/22 03:14:05;;;;;;;7.68;4.22;;;;;;;14.27;79.93;100843.44;5030653;28;20037;-69
2022/10/22 03:16:30;;;;;;;7.40;4.47;;;;;;;14.25;80.07;100840.91;5013456;28;20089;-70
2022/10/22 03:18:56;;;;;;;11.07;4.35;;;;;;;14.24;80.16;100844.81;5014175;28;20037;-70
2022/10/22 03:21:35;;;;;;;10.13;4.65;;;;;;;14.30;80.42;100842.88;5013479;28;20026;-69
2022/10/22 03:24:08;;;;;;;8.40;4.60;;;;;;;14.28;80.34;100845.09;5025777;28;20518;-70
2022/10/22 03:26:33;;;;;;;5.57;3.92;;;;;;;14.28;80.29;100840.34;5025488;28;20030;-70
2022/10/22 03:28:59;;;;;;;9.02;4.32;;;;;;;14.29;80.34;100843.97;5029011;28;20494;-70
2022/10/22 03:31:25;;;;;;;9.43;3.97;;;;;;;14.33;80.51;100851.53;5028642;28;20022;-70
2022/10/22 03:33:50;;;;;;;10.02;4.13;;;;;;;14.31;80.00;100844.56;5013597;28;20036;-70
2022/10/22 03:36:16;;;;;;;11.98;4.20;;;;;;;14.31;80.45;100850.13;5012769;28;20030;-70
2022/10/22 03:38:41;;;;;;;10.13;4.13;;;;;;;14.31;80.52;100855.72;5024391;28;20018;-70
2022/10/22 03:41:06;;;;;;;14.50;4.45;;;;;;;14.30;80.26;100854.88;5032656;28;20087;-70
2022/10/22 03:43:34;;;;;;;8.00;3.83;;;;;;;14.30;80.61;100862.41;5031744;28;20465;-70
2022/10/22 03:45:59;;;;;;;7.35;3.88;;;;;;;14.33;80.36;100859.06;5030433;28;20036;-70
2022/10/22 03:48:25;;;;;;;9.57;4.22;;;;;;;14.25;80.91;100864.06;5017002;28;20029;-69
2022/10/22 03:50:50;;;;;;;14.82;4.60;;;;;;;14.32;80.30;100868.56;5012621;28;20473;-69
2022/10/22 03:53:15;;;;;;;10.32;3.83;;;;;;;14.30;80.47;100873.56;5012573;28;20157;-69
2022/10/22 03:55:41;;;;;;;11.57;4.25;;;;;;;14.28;80.29;100879.44;5029444;28;20059;-70
2022/10/22 03:58:06;;;;;;;11.18;4.22;;;;;;;14.25;80.52;100880.00;5028026;28;20044;-70
2022/10/22 04:00:34;;;;;;;13.88;4.45;;;;;;;14.24;80.95;100878.31;5026147;28;20556;-70
2022/10/22 04:02:59;;;;;;;9.48;3.97;;;;;;;14.27;80.34;100879.72;5031909;28;20046;-70
2022/10/22 04:05:24;;;;;;;11.50;4.22;;;;;;;14.30;80.54;100873.56;5032048;28;20021;-70
2022/10/22 04:07:49;;;;;;;13.43;4.13;;;;;;;14.25;80.80;100871.63;5032037;28;20064;-69
2022/10/22 04:10:15;;;;;;;14.25;4.50;;;;;;;14.17;80.90;100872.16;5031903;28;20112;-70
2022/10/22 04:12:40;;;;;;;14.60;4.57;;;;;;;14.25;80.80;100877.19;5032204;28;20072;-70
2022/10/22 04:15:06;;;;;;;9.93;4.30;;;;;;;14.26;80.61;100881.66;5030558;28;20025;-70
2022/10/22 04:17:33;;;;;;;10.82;4.00;;;;;;;14.27;80.65;100877.78;5031034;28;20058;-70
2022/10/22 04:19:58;;;;;;;10.77;3.90;;;;;;;14.28;80.67;100885.03;5029720;28;20100;-70
2022/10/22 04:22:24;;;;;;;11.38;4.05;;;;;;;14.26;80.48;100881.66;5032792;28;20026;-70
2022/10/22 04:24:49;;;;;;;12.25;4.03;;;;;;;14.27;80.61;100888.94;5031796;28;20484;-70
2022/10/22 04:27:14;;;;;;;7.05;3.88;;;;;;;14.26;80.38;100881.66;5031050;28;20026;-71
2022/10/22 04:29:40;;;;;;;10.07;3.70;;;;;;;14.24;80.61;100878.31;5027010;28;20033;-70
2022/10/22 04:32:05;;;;;;;8.13;3.80;;;;;;;14.27;80.95;100883.38;5019718;28;20034;-70
2022/10/22 04:34:31;;;;;;;12.75;4.07;;;;;;;14.25;80.97;100885.56;5011910;28;20026;-71
2022/10/22 04:36:56;;;;;;;10.57;3.60;;;;;;;14.25;80.77;100888.38;5028109;28;20037;-71
2022/10/22 04:39:22;;;;;;;10.38;3.90;;;;;;;14.23;80.98;100883.06;5030403;28;20033;-70
2022/10/22 04:41:47;;;;;;;13.15;3.85;;;;;;;14.18;80.72;100877.47;5031611;28;20022;-71
2022/10/22 04:44:12;;;;;;;9.10;3.90;;;;;;;14.22;80.98;100886.13;5031385;28;20029;-71
2022/10/22 04:46:37;;;;;;;12.70;3.92;;;;;;;14.24;80.94;100878.31;5025680;28;20029;-70
2022/10/22 04:49:03;;;;;;;11.48;4.13;;;;;;;14.25;80.62;100893.94;5027895;28;20026;-70
2022/10/22 04:51:29;;;;;;;13.77;3.70;;;;;;;14.23;80.57;100890.63;5026179;28;20049;-70
2022/10/22 04:53:54;;;;;;;11.82;4.10;;;;;;;14.23;80.76;100894.25;5030327;28;20055;-70
2022/10/22 04:56:21;;;;;;;13.07;4.00;;;;;;;14.27;80.56;100888.94;5028099;28;20065;-71
2022/10/22 04:58:48;;;;;;;10.95;3.83;;;;;;;14.25;80.95;100891.16;5029831;28;20045;-70
2022/10/22 05:01:20;;;;;;;10.75;3.92;;;;;;;14.21;81.12;100892.81;5025699;28;20022;-70
2022/10/22 05:03:46;;;;;;;15.18;4.65;;;;;;;14.19;80.81;100897.88;5030607;28;20388;-70
2022/10/22 05:06:12;;;;;;;10.20;4.13;;;;;;;14.20;80.97;100894.78;5029766;28;20465;-70
2022/10/22 05:08:38;;;;;;;14.40;4.32;;;;;;;14.24;81.05;100900.66;5029692;28;20108;-69
2022/10/22 05:11:15;;;;;;;12.52;4.07;;;;;;;14.28;80.96;100899.00;5030560;28;20079;-70
2022/10/22 05:13:41;;;;;;;11.07;4.10;;;;;;;14.30;81.00;100893.94;5030720;28;20140;-70
2022/10/22 05:16:07;;;;;;;12.68;3.83;;;;;;;14.25;80.90;100897.56;5029912;28;20120;-70
2022/10/22 05:18:37;;;;;;;12.43;3.70;;;;;;;14.27;80.75;100894.53;5031811;28;20025;-70
2022/10/22 05:21:04;;;;;;;15.52;4.32;;;;;;;14.26;80.99;100892.81;5030687;28;20388;-72
2022/10/22 05:23:30;;;;;;;13.57;4.28;;;;;;;14.23;81.23;100905.41;5029464;28;20033;-70
2022/10/22 05:25:55;;;;;;;13.48;3.90;;;;;;;14.22;81.38;100909.28;5028572;28;20691;-69
2022/10/22 05:28:20;;;;;;;13.40;4.40;;;;;;;14.25;80.93;100907.91;5020349;28;20393;-71
2022/10/22 05:30:56;;;;;;;11.95;4.32;;;;;;;14.25;81.24;100908.75;5027418;28;20029;-70
2022/10/22 05:33:22;;;;;;;16.92;5.07;;;;;;;14.28;81.11;100901.78;5031574;28;20048;-74
2022/10/22 05:35:48;;;;;;;10.30;4.15;;;;;;;14.27;81.02;100908.50;5027653;28;20076;-70
2022/10/22 05:38:14;;;;;;;16.85;4.72;;;;;;;14.31;80.86;100904.03;5030734;28;20037;-71
2022/10/22 05:40:39;;;;;;;9.10;3.58;;;;;;;14.30;81.01;100916.28;5032063;28;20036;-70
2022/10/22 05:43:04;;;;;;;12.48;4.53;;;;;;;14.31;80.62;100914.34;5031112;28;20052;-73
2022/10/22 05:45:30;;;;;;;11.93;3.92;;;;;;;14.31;80.90;100923.56;5019170;28;20022;-72
2022/10/22 05:47:55;;;;;;;14.98;4.03;;;;;;;14.30;80.88;100923.81;5023266;28;20523;-73
2022/10/22 05:50:20;;;;;;;14.20;3.85;;;;;;;14.30;80.47;100916.28;5029517;28;20087;-71
2022/10/22 05:52:45;;;;;;;13.18;4.00;;;;;;;14.30;80.56;100921.88;5031304;28;20041;-72
2022/10/22 05:55:11;;;;;;;17.65;4.32;;;;;;;14.34;80.30;100924.94;5018928;28;20033;-72
2022/10/22 05:57:38;;;;;;;18.67;3.80;;;;;;;14.31;80.02;100926.38;5010511;28;20121;-72
2022/10/22 06:00:03;;;;;;;15.40;4.13;;;;;;;14.30;80.12;100932.19;5030278;28;20033;-72
2022/10/22 06:02:29;;;;;;;10.52;3.70;;;;;;;14.30;80.33;100938.63;5013610;28;20107;-71
2022/10/22 06:04:54;;;;;;;10.73;3.42;;;;;;;14.32;80.20;100942.00;5010958;28;20489;-72
2022/10/22 06:07:19;;;;;;;9.88;3.53;;;;;;;14.31;80.01;100945.06;5011100;28;20026;-71
2022/10/22 06:09:48;;;;;;;13.57;3.65;;;;;;;14.32;79.84;100955.13;5011658;28;20030;-72
2022/10/22 06:12:14;;;;;;;13.18;3.70;;;;;;;14.32;79.86;100947.56;5010370;28;20067;-71
2022/10/22 06:14:39;;;;;;;13.95;4.00;;;;;;;14.33;79.74;100951.19;5026003;28;20123;-71
2022/10/22 06:17:04;;;;;;;11.00;3.30;;;;;;;14.33;79.54;100952.03;5030450;28;20045;-72
2022/10/22 06:19:30;;;;;;;10.23;3.20;;;;;;;14.33;79.68;100960.41;5031008;28;20029;-72
2022/10/22 06:21:55;;;;;;;10.50;3.40;;;;;;;14.29;79.89;100962.09;5028767;28;20443;-71
2022/10/22 06:24:20;;;;;;;13.52;3.65;;;;;;;14.27;79.76;100975.50;5030729;28;20025;-71
2022/10/22 06:26:49;;;;;;;12.77;3.28;;;;;;;14.27;79.97;100975.50;5030236;28;20022;-71
2022/10/22 06:29:14;;;;;;;17.33;3.47;;;;;;;14.27;80.06;100977.44;5030331;28;20112;-71
2022/10/22 06:31:40;;;;;;;8.35;3.28;;;;;;;14.28;79.96;100976.31;5028140;28;20037;-72
2022/10/22 06:34:09;;;;;;;7.75;2.80;;;;;;;14.29;79.87;100984.41;5030274;28;20452;-72
2022/10/22 06:36:34;;;;;;;10.88;3.00;;;;;;;14.29;79.77;100984.41;5030649;28;20065;-72
2022/10/22 06:38:59;;;;;;;7.93;3.03;;;;;;;14.29;79.54;100990.00;5030229;28;20076;-71
2022/10/22 06:41:25;;;;;;;14.70;3.22;;;;;;;14.29;79.86;100991.97;5030129;28;20431;-70
2022/10/22 06:43:50;;;;;;;12.20;3.63;;;;;;;14.26;79.69;100993.34;5027644;28;20022;-70
2022/10/22 06:46:18;;;;;;;9.30;2.95;;;;;;;14.30;79.67;100994.47;5029709;28;20082;-71
2022/10/22 06:48:51;;;;;;;12.13;3.88;;;;;;;14.26;79.46;100996.13;5030262;28;20479;-71
2022/10/22 06:51:17;;;;;;;7.28;2.65;;;;;;;14.25;79.39;101005.63;5030981;28;20044;-71
2022/10/22 06:53:42;;;;;;;9.07;2.95;;;;;;;14.27;79.57;101009.00;5029820;28;20025;-71
2022/10/22 06:56:10;;;;;;;10.05;3.08;;;;;;;14.26;79.58;101018.47;5030571;28;20018;-71
2022/10/22 06:58:36;;;;;;;9.55;3.13;;;;;;;14.25;79.29;101025.16;5030935;28;20126;-71
2022/10/22 07:01:07;;;;;;;8.15;2.58;;;;;;;14.21;79.56;101029.63;5025718;28;20112;-71
2022/10/22 07:03:33;;;;;;;10.98;2.80;;;;;;;14.21;79.49;101030.47;5030792;28;20037;-71
2022/10/22 07:06:00;;;;;;;8.60;3.05;;;;;;;14.21;79.36;101033.25;5030670;28;20025;-71
2022/10/22 07:08:25;;;;;;;11.95;2.72;;;;;;;14.28;79.42;101041.38;5027196;28;20033;-71
2022/10/22 07:10:51;;;;;;;11.93;3.10;;;;;;;14.25;79.22;101045.53;5028100;28;20048;-71
2022/10/22 07:13:16;;;;;;;10.98;2.88;;;;;;;14.28;79.35;101046.13;5017703;28;20124;-71
2022/10/22 07:15:41;;;;;;;13.13;3.45;;;;;;;14.29;79.63;101048.63;5022778;28;20053;-71
2022/10/22 07:18:06;;;;;;;12.50;3.22;;;;;;;14.34;79.68;101056.19;5019953;28;20052;-72
2022/10/22 07:20:32;;;;;;;6.95;2.90;;;;;;;14.35;79.47;101046.72;5012199;28;20034;-71
2022/10/22 07:22:57;;;;;;;9.07;2.88;;;;;;;14.35;79.60;101057.88;5010738;28;20029;-71
2022/10/22 07:25:22;;;;;;;8.52;2.55;;;;;;;14.36;79.84;101062.34;5028700;28;20038;-71
2022/10/22 07:27:47;;;;;;;8.90;2.40;;;;;;;14.41;79.35;101062.38;5029629;28;20437;-71
2022/10/22 07:30:13;;;;;;;13.88;2.90;;;;;;;14.44;79.40;101062.66;5029523;28;20022;-71
2022/10/22 07:32:38;;;;;;;10.88;3.25;;;;;;;14.46;79.37;101063.25;5028208;28;20048;-71
2022/10/22 07:35:04;;;;;;;8.88;2.92;;;;;;;14.49;79.16;101075.81;5025069;28;20029;-71
2022/10/22 07:37:29;;;;;;;7.45;2.55;;;;;;;14.48;79.08;101074.13;5024892;28;20030;-71
2022/10/22 07:39:54;;;;;;;9.48;2.83;;;;;;;14.50;79.17;101071.91;5031838;28;20104;-71
2022/10/22 07:42:20;;;;;;;9.27;2.97;;;;;;;14.55;79.25;101080.34;5014312;28;20469;-71
2022/10/22 07:44:45;;;;;;;12.10;2.88;;;;;;;14.60;79.00;101082.28;5014081;28;20110;-71
2022/10/22 07:47:10;;;;;;;12.13;3.00;;;;;;;14.63;78.65;101087.34;5014498;28;20056;-71
2022/10/22 07:49:35;;;;;;;10.45;3.10;;;;;;;14.65;79.01;101085.09;5017804;28;20523;-72
2022/10/22 07:52:01;;;;;;;12.68;3.22;;;;;;;14.65;78.69;101087.88;5025947;28;20032;-71
2022/10/22 07:54:26;;;;;;;8.95;2.53;;;;;;;14.67;78.69;101094.06;5033493;28;20064;-71
2022/10/22 07:56:51;;;;;;;8.90;2.75;;;;;;;14.67;78.67;101094.06;5032957;28;20043;-71
2022/10/22 07:59:16;;;;;;;11.63;2.90;;;;;;;14.68;78.96;101096.56;5033099;28;20033;-71
2022/10/22 08:01:42;;;;;;;9.65;2.90;;;;;;;14.69;78.79;101097.41;5029068;28;20116;-71
2022/10/22 08:04:08;;;;;;;10.98;2.25;;;;;;;14.68;78.76;101098.53;5027256;28;20423;-71
2022/10/22 08:06:35;;;;;;;7.90;2.65;;;;;;;14.70;78.89;101110.28;5030538;28;20045;-68
2022/10/22 08:09:00;;;;;;;11.85;2.60;;;;;;;14.73;78.73;101102.16;5027219;28;20040;-67
2022/10/22 08:11:25;;;;;;;10.27;2.65;;;;;;;14.76;78.74;101109.16;5029587;28;20017;-71
2022/10/22 08:13:52;;;;;;;8.68;2.45;;;;;;;14.79;79.01;101119.78;5032795;28;20030;-71
2022/10/22 08:16:18;;;;;;;5.93;2.22;;;;;;;14.85;78.45;101115.88;5032857;28;20021;-71
2022/10/22 08:18:43;;;;;;;7.75;2.38;;;;;;;14.88;78.64;101123.72;5025536;28;20499;-71
2022/10/22 08:21:09;;;;;;;8.55;2.42;;;;;;;14.92;78.55;101116.47;5029220;28;20053;-71
2022/10/22 08:23:35;;;;;;;10.55;2.75;;;;;;;14.98;78.75;101111.75;5033307;28;20148;-71
2022/10/22 08:26:01;;;;;;;9.00;2.33;;;;;;;15.07;78.34;101117.63;5032104;28;20049;-71
2022/10/22 08:28:28;;;;;;;10.02;2.60;;;;;;;15.11;78.60;101132.72;5030947;28;20453;-71
2022/10/22 08:30:53;;;;;;;11.60;2.60;;;;;;;15.13;78.44;101130.47;5032702;28;20535;-71
2022/10/22 08:33:19;;;;;;;14.63;2.58;;;;;;;15.20;78.60;101142.25;5027444;28;20033;-71
2022/10/22 08:35:49;;;;;;;7.68;1.98;;;;;;;15.26;78.25;101145.91;5032565;28;20033;-71
2022/10/22 08:38:14;;;;;;;12.05;2.20;;;;;;;15.31;78.47;101140.31;5032737;28;20064;-72
2022/10/22 08:40:41;;;;;;;8.10;2.28;;;;;;;15.31;77.88;101138.34;5031760;28;20085;-71
2022/10/22 08:43:32;;;;;;;12.75;2.53;;;;;;;15.33;77.55;101149.28;5033481;28;20044;-71
2022/10/22 08:46:37;;;;;;;10.20;2.35;;;;;;;15.35;77.72;101156.25;5031626;28;20497;-71
2022/10/22 08:49:07;;;;;;;11.40;2.72;;;;;;;15.33;77.74;101160.47;4992070;28;20060;-71
2022/10/22 08:51:39;;;;;;;8.65;2.40;;;;;;;15.36;77.81;101163.50;5012433;28;20032;-71
2022/10/22 08:54:23;;;;;;;12.32;2.22;;;;;;;15.36;77.70;101174.69;5012611;28;20041;-72
2022/10/22 08:57:28;;;;;;;9.15;2.20;;;;;;;15.38;77.95;101168.84;5012782;28;20045;-71
2022/10/22 09:00:05;;;;;;;7.30;2.15;;;;;;;15.38;77.63;101171.66;5011669;28;20037;-71
2022/10/22 09:02:48;;;;;;;10.60;2.30;;;;;;;15.38;77.17;101186.47;5023962;28;20388;-71
2022/10/22 09:05:16;;;;;;;7.57;1.90;;;;;;;15.39;77.49;101179.75;5031841;28;20045;-71
2022/10/22 09:07:42;;;;;;;6.95;2.38;;;;;;;15.40;77.37;101186.19;5031232;28;20120;-71
2022/10/22 09:10:11;;;;;;;10.57;2.13;;;;;;;15.36;76.82;101187.84;5029360;28;20021;-71
2022/10/22 09:12:36;;;;;;;9.55;2.20;;;;;;;15.35;76.86;101187.03;5028095;28;20469;-71
2022/10/22 09:15:02;;;;;;;12.23;2.42;;;;;;;15.34;76.93;101193.75;5029528;28;20049;-71
2022/10/22 09:17:32;;;;;;;10.38;2.38;;;;;;;15.34;77.24;101202.13;5024430;28;20057;-72
2022/10/22 09:20:25;;;;;;;8.35;2.00;;;;;;;15.36;76.86;101207.44;5031716;28;20481;-72
2022/10/22 09:23:28;;;;;;;8.57;2.30;;;;;;;15.33;77.12;101211.66;5024776;28;20057;-72
2022/10/22 09:25:55;;;;;;;;;;;;;;;15.38;77.26;101206.06;5021626;28;20041;-74
2022/10/22 09:28:21;;;;;;;8.60;2.83;;;;;;;15.32;77.40;101218.31;5024398;28;19921;-72
2022/10/22 09:30:46;;;;;;;9.93;2.70;;;;;;;15.32;77.24;101209.94;5022078;28;20405;-72
2022/10/22 09:33:23;;;;;;;8.70;2.08;;;;;;;15.31;77.18;101216.66;5017418;28;20115;-72
2022/10/22 09:35:58;;;;;;;9.70;2.33;;;;;;;15.32;77.27;101221.13;5020498;28;20091;-72
2022/10/22 09:38:32;;;;;;;10.73;2.25;;;;;;;15.32;77.04;101228.69;5022241;28;20116;-64
2022/10/22 09:41:00;;;;;;;11.02;2.53;;;;;;;15.32;77.12;101228.69;5027447;28;20483;-75
2022/10/22 09:43:25;;;;;;;11.25;2.50;;;;;;;15.31;77.28;101236.22;5018769;28;20027;-72
2022/10/22 09:46:16;;;;;;;10.68;2.20;;;;;;;15.32;77.21;101226.72;5021959;28;20029;-65
2022/10/22 09:48:46;;;;;;;11.23;2.40;;;;;;;15.34;77.16;101238.50;5024064;28;20046;-73
2022/10/22 09:51:18;;;;;;;12.02;2.30;;;;;;;15.36;77.36;101235.41;5021970;28;20156;-71
2022/10/22 09:53:46;;;;;;;10.15;2.38;;;;;;;15.38;77.34;101242.41;5020787;28;21255;-71
2022/10/22 09:56:26;;;;;;;9.85;2.20;;;;;;;15.40;77.40;101242.13;5013581;28;20025;-68
2022/10/22 09:58:55;;;;;;;8.02;1.77;;;;;;;15.41;77.04;101244.66;5023003;28;20025;-68
2022/10/22 10:01:31;;;;;;;8.85;2.05;;;;;;;15.43;77.51;101255.56;5027210;28;20033;-69
2022/10/22 10:04:06;;;;;;;9.65;2.55;;;;;;;15.45;77.19;101258.94;5023304;28;20033;-67
2022/10/22 10:06:33;;;;;;;8.70;2.00;;;;;;;15.43;77.11;101259.19;5025592;28;20493;-71
2022/10/22 10:09:05;;;;;;;8.88;2.17;;;;;;;15.44;76.70;101272.09;5017992;28;20116;-69
2022/10/22 10:11:44;;;;;;;8.20;2.58;;;;;;;15.45;77.46;101278.53;5015932;28;20034;-67
2022/10/22 10:14:23;;;;;;;10.48;2.85;;;;;;;15.49;77.24;101278.81;5028869;28;20029;-70
2022/10/22 10:17:18;;;;;;;22.48;6.25;;;;;;;15.50;77.84;101284.13;5017414;28;20049;-68
2022/10/22 10:20:18;;;;;;;13.80;3.00;;;;;;;15.52;77.35;101284.66;5027441;28;20042;-71
2022/10/22 10:22:50;;;;;;;7.47;2.50;;;;;;;15.50;77.49;101288.88;5028881;28;20437;-67
2022/10/22 10:25:15;;;;;;;;;;;;;;;15.58;77.36;101288.34;5027904;28;20662;-69
2022/10/22 10:27:55;;;;;;;7.68;3.08;;;;;;;15.57;77.27;101295.06;5031299;28;19917;-68
2022/10/22 10:30:25;;;;;;;12.90;3.15;;;;;;;15.59;77.33;101290.00;5029288;28;21937;-67
2022/10/22 10:33:03;;;;;;;10.88;2.90;;;;;;;15.63;77.60;101289.19;5029946;28;20060;-68
2022/10/22 10:35:45;;;;;;;12.38;2.25;;;;;;;15.66;77.10;101290.63;5026623;28;20032;-68
2022/10/22 10:38:38;;;;;;;12.57;2.35;;;;;;;15.70;77.03;101291.75;5024551;28;20037;-67
2022/10/22 10:41:16;;;;;;;14.35;2.75;;;;;;;15.73;77.08;101295.97;5016761;28;20037;-69
2022/10/22 10:44:01;;;;;;;13.20;2.97;;;;;;;15.81;77.51;101292.63;5016535;28;20117;-70
2022/10/22 10:46:57;;;;;;;10.80;3.15;;;;;;;15.85;76.61;101294.59;5017600;28;20030;-69
2022/10/22 10:49:25;;;;;;;6.47;2.00;;;;;;;15.88;75.95;101304.41;5018879;28;20499;-69
2022/10/22 10:51:56;;;;;;;8.75;2.42;;;;;;;15.92;76.25;101311.13;5026252;28;20048;-68
2022/10/22 10:54:37;;;;;;;7.15;2.45;;;;;;;15.98;76.33;101309.16;5028356;28;20034;-66
2022/10/22 10:57:15;;;;;;;11.00;2.50;;;;;;;16.01;75.91;101300.19;5021783;28;20034;-65
2022/10/22 10:59:51;;;;;;;12.85;2.85;;;;;;;16.05;75.43;101301.31;5025073;28;20153;-66
2022/10/22 11:02:58;;;;;;;14.50;2.30;;;;;;;16.10;75.53;101298.53;5022551;28;20034;-65
2022/10/22 11:05:32;;;;;;;13.85;2.63;;;;;;;16.14;75.10;101299.63;5017990;28;20468;-69
2022/10/22 11:08:00;;;;;;;11.75;2.60;;;;;;;16.15;74.22;101292.91;5026212;28;20052;-69
2022/10/22 11:10:45;;;;;;;10.77;2.58;;;;;;;16.16;73.95;101292.66;5024010;28;20026;-69
2022/10/22 11:13:31;;;;;;;11.13;2.55;;;;;;;16.22;74.74;101293.47;5019572;28;20124;-65
2022/10/22 11:16:09;;;;;;;12.20;2.47;;;;;;;16.34;73.95;101302.44;5042743;28;20033;-66
2022/10/22 11:18:40;;;;;;;12.18;2.50;;;;;;;16.52;73.55;101300.19;5028317;28;20045;-66
2022/10/22 11:21:16;;;;;;;11.60;2.65;;;;;;;16.62;72.88;101302.97;5020551;28;20026;-66
2022/10/22 11:23:56;;;;;;;10.93;2.65;;;;;;;16.66;72.17;101299.34;5025238;28;20029;-66
2022/10/22 11:26:40;;;;;;;16.90;3.15;;;;;;;16.66;72.89;101312.47;5028812;28;20116;-67
2022/10/22 11:29:11;;;;;;;12.90;3.10;;;;;;;16.67;71.80;101302.97;5024337;28;20790;-66
2022/10/22 11:31:38;;;;;;;9.98;2.72;;;;;;;16.75;71.33;101308.03;5030953;28;20025;-68
2022/10/22 11:34:21;;;;;;;16.73;3.67;;;;;;;16.90;71.76;101298.75;5032109;28;20459;-67